createdAt,value
2022-10-31T00:01:42.793Z,44.40
2022-10-31T00:04:10.033Z,44.30
2022-10-31T00:06:40.107Z,44.50
2022-10-31T00:09:07.265Z,44.60
2022-10-31T00:11:34.819Z,44.50
2022-10-31T00:14:03.304Z,44.50
2022-10-31T00:16:31.558Z,44.40
2022-10-31T00:19:05.285Z,44.50
2022-10-31T00:21:33.151Z,44.40
2022-10-31T00:24:02.041Z,44.50
2022-10-31T00:26:31.355Z,44.50
2022-10-31T00:29:00.185Z,44.50
2022-10-31T00:31:27.574Z,44.50
2022-10-31T00:33:54.650Z,44.40
2022-10-31T00:36:23.289Z,44.40
2022-10-31T00:38:50.514Z,44.50
2022-10-31T00:41:24.039Z,44.50
2022-10-31T00:43:51.361Z,45.30
2022-10-31T00:46:18.432Z,44.50
2022-10-31T00:48:48.017Z,44.40
2022-10-31T00:51:17.672Z,44.50
2022-10-31T00:53:47.575Z,44.60
2022-10-31T00:56:14.694Z,44.50
2022-10-31T00:58:41.883Z,45.10
2022-10-31T01:01:09.275Z,44.50
2022-10-31T01:03:36.876Z,44.50
2022-10-31T01:06:11.590Z,44.50
2022-10-31T01:08:40.161Z,44.50
2022-10-31T01:11:12.326Z,44.50
2022-10-31T01:13:39.773Z,44.50
2022-10-31T01:16:10.943Z,44.50
2022-10-31T01:18:38.198Z,44.50
2022-10-31T01:21:09.643Z,44.50
2022-10-31T01:23:38.367Z,44.60
2022-10-31T01:26:16.811Z,44.60
2022-10-31T01:28:53.581Z,44.60
2022-10-31T01:31:25.520Z,44.70
2022-10-31T01:33:54.444Z,44.40
2022-10-31T01:36:33.373Z,44.60
2022-10-31T01:39:06.181Z,44.60
2022-10-31T01:41:38.664Z,44.70
2022-10-31T01:44:14.853Z,44.60
2022-10-31T01:47:13.711Z,44.70
2022-10-31T01:49:54.066Z,44.70
2022-10-31T01:52:36.268Z,44.70
2022-10-31T01:55:26.404Z,44.30
2022-10-31T01:58:01.661Z,44.70
2022-10-31T02:00:29.460Z,44.70
2022-10-31T02:02:57.212Z,44.70
2022-10-31T02:05:29.996Z,44.70
2022-10-31T02:08:04.741Z,44.70
2022-10-31T02:10:37.951Z,44.60
2022-10-31T02:13:09.369Z,44.70
2022-10-31T02:15:40.416Z,44.70
2022-10-31T02:18:11.437Z,44.70
2022-10-31T02:21:23.765Z,44.70
2022-10-31T02:24:21.836Z,44.70
2022-10-31T02:27:38.344Z,44.70
2022-10-31T02:30:17.773Z,44.70
2022-10-31T02:33:15.761Z,44.70
2022-10-31T02:36:01.597Z,44.80
2022-10-31T02:40:04.588Z,44.70
2022-10-31T02:46:07.268Z,44.80
2022-10-31T02:48:39.864Z,44.70
2022-10-31T02:51:09.618Z,44.60
2022-10-31T02:53:38.836Z,44.70
2022-10-31T02:56:21.563Z,44.70
2022-10-31T02:58:59.898Z,44.80
2022-10-31T03:02:05.422Z,44.80
2022-10-31T03:05:00.239Z,44.90
2022-10-31T03:07:42.131Z,44.90
2022-10-31T03:10:17.993Z,44.80
2022-10-31T03:13:16.107Z,44.90
2022-10-31T03:15:51.497Z,44.90
2022-10-31T03:18:43.510Z,44.80
2022-10-31T03:21:29.328Z,45.00
2022-10-31T03:24:00.615Z,44.90
2022-10-31T03:26:32.900Z,44.80
2022-10-31T03:29:07.974Z,44.80
2022-10-31T03:32:04.513Z,44.90
2022-10-31T03:34:34.698Z,45.00
2022-10-31T03:37:08.258Z,44.90
2022-10-31T03:39:39.188Z,44.80
2022-10-31T03:42:16.716Z,44.80
2022-10-31T03:44:51.708Z,45.00
2022-10-31T03:47:19.451Z,45.00
2022-10-31T03:49:47.125Z,44.80
2022-10-31T03:52:28.817Z,44.90
2022-10-31T03:55:31.521Z,44.90
2022-10-31T03:58:11.019Z,44.90
2022-10-31T04:00:45.642Z,45.00
2022-10-31T04:03:33.564Z,45.00
2022-10-31T04:06:08.313Z,45.00
2022-10-31T04:08:45.686Z,45.00
2022-10-31T04:11:17.897Z,45.00
2022-10-31T04:13:47.964Z,45.10
2022-10-31T04:16:20.798Z,45.30
2022-10-31T04:18:48.355Z,45.00
2022-10-31T04:21:18.976Z,45.00
2022-10-31T04:23:46.204Z,45.00
2022-10-31T04:26:14.602Z,45.00
2022-10-31T04:28:41.775Z,45.00
2022-10-31T04:31:16.092Z,45.50
2022-10-31T04:33:43.463Z,45.10
2022-10-31T04:36:13.257Z,45.00
2022-10-31T04:38:40.395Z,45.00
2022-10-31T04:41:12.186Z,45.00
2022-10-31T04:43:39.423Z,45.00
2022-10-31T04:46:06.709Z,45.00
2022-10-31T04:48:36.857Z,44.90
2022-10-31T04:51:07.384Z,45.10
2022-10-31T04:53:37.514Z,45.10
2022-10-31T04:56:05.405Z,45.00
2022-10-31T04:58:35.943Z,45.10
2022-10-31T05:01:09.565Z,45.10
2022-10-31T05:03:37.067Z,45.20
2022-10-31T05:06:04.977Z,45.00
2022-10-31T05:08:35.370Z,45.00
2022-10-31T05:11:06.970Z,45.10
2022-10-31T05:13:34.373Z,45.10
2022-10-31T05:16:05.079Z,45.10
2022-10-31T05:18:33.982Z,45.20
2022-10-31T05:21:01.160Z,45.20
2022-10-31T05:23:28.659Z,45.10
2022-10-31T05:25:55.781Z,45.00
2022-10-31T05:28:25.292Z,44.60
2022-10-31T05:30:52.785Z,45.10
2022-10-31T05:33:20.017Z,45.10
2022-10-31T05:35:47.122Z,45.10
2022-10-31T05:38:14.193Z,45.10
2022-10-31T05:40:41.493Z,45.90
2022-10-31T05:43:09.153Z,45.10
2022-10-31T05:45:36.469Z,45.20
2022-10-31T05:48:05.154Z,45.20
2022-10-31T05:50:40.246Z,45.20
2022-10-31T05:53:10.877Z,45.30
2022-10-31T05:55:38.069Z,45.20
2022-10-31T06:02:15.476Z,45.30
2022-10-31T06:04:42.538Z,45.20
2022-10-31T06:07:09.826Z,45.10
2022-10-31T06:09:36.915Z,45.30
2022-10-31T06:12:06.945Z,45.30
2022-10-31T06:14:34.036Z,45.20
2022-10-31T06:17:01.472Z,45.30
2022-10-31T06:19:28.673Z,45.30
2022-10-31T06:21:55.966Z,45.30
2022-10-31T06:24:23.651Z,45.30
2022-10-31T06:26:56.933Z,45.40
2022-10-31T06:29:24.862Z,45.30
2022-10-31T06:31:55.476Z,45.30
2022-10-31T06:34:22.472Z,45.30
2022-10-31T06:36:50.316Z,45.30
2022-10-31T06:39:20.461Z,45.30
2022-10-31T06:41:51.478Z,45.40
2022-10-31T06:44:24.659Z,45.40
2022-10-31T06:46:52.010Z,45.20
2022-10-31T06:49:22.013Z,45.30
2022-10-31T06:51:50.881Z,45.30
2022-10-31T06:54:18.821Z,45.40
2022-10-31T06:56:57.997Z,45.50
2022-10-31T06:59:25.420Z,45.60
2022-10-31T07:01:52.758Z,45.60
2022-10-31T07:04:20.264Z,45.70
2022-10-31T07:06:51.935Z,45.80
2022-10-31T07:09:19.815Z,45.90
2022-10-31T07:11:49.006Z,45.80
2022-10-31T07:14:18.695Z,45.90
2022-10-31T07:16:50.312Z,46.50
2022-10-31T07:19:18.359Z,45.90
2022-10-31T07:21:45.722Z,45.90
2022-10-31T07:24:12.993Z,46.00
2022-10-31T07:26:43.473Z,46.00
2022-10-31T07:29:10.979Z,46.00
2022-10-31T07:31:38.244Z,45.90
2022-10-31T07:34:05.356Z,46.00
2022-10-31T07:36:34.676Z,45.80
2022-10-31T07:39:03.451Z,45.90
2022-10-31T07:41:37.992Z,46.00
2022-10-31T07:44:05.602Z,45.80
2022-10-31T07:46:32.695Z,45.80
2022-10-31T07:49:00.579Z,45.80
2022-10-31T07:51:27.780Z,45.90
2022-10-31T07:53:55.235Z,45.80
2022-10-31T07:56:22.427Z,45.70
2022-10-31T07:58:52.822Z,45.60
2022-10-31T08:01:20.071Z,45.70
2022-10-31T08:03:47.050Z,45.50
2022-10-31T08:06:14.536Z,45.50
2022-10-31T08:08:50.976Z,45.00
2022-10-31T08:11:21.965Z,45.50
2022-10-31T08:13:51.934Z,45.40
2022-10-31T08:16:19.145Z,45.50
2022-10-31T08:18:46.637Z,45.50
2022-10-31T08:21:13.790Z,45.50
2022-10-31T08:23:44.003Z,45.50
2022-10-31T08:26:11.314Z,45.50
2022-10-31T08:28:38.465Z,45.20
2022-10-31T08:31:06.952Z,45.60
2022-10-31T08:33:34.535Z,45.60
2022-10-31T08:36:05.233Z,45.50
2022-10-31T08:38:37.989Z,45.60
2022-10-31T08:41:05.289Z,45.70
2022-10-31T08:43:32.544Z,45.70
2022-10-31T08:45:59.799Z,45.60
2022-10-31T08:48:27.233Z,45.70
2022-10-31T08:51:04.917Z,45.70
2022-10-31T08:53:32.810Z,45.80
2022-10-31T08:56:02.857Z,45.80
2022-10-31T08:58:30.101Z,45.70
2022-10-31T09:01:02.101Z,45.70
2022-10-31T09:03:33.104Z,45.60
2022-10-31T09:06:04.095Z,45.60
2022-10-31T09:08:32.969Z,45.60
2022-10-31T09:11:00.494Z,45.60
2022-10-31T09:13:29.687Z,45.60
2022-10-31T09:15:59.811Z,45.60
2022-10-31T09:18:33.182Z,45.50
2022-10-31T09:21:01.931Z,45.60
2022-10-31T09:23:37.471Z,45.60
2022-10-31T09:26:05.328Z,45.60
2022-10-31T09:28:36.241Z,45.70
2022-10-31T09:31:03.991Z,45.60
2022-10-31T09:33:31.137Z,45.60
2022-10-31T09:36:00.316Z,45.50
2022-10-31T09:38:41.561Z,44.20
2022-10-31T09:41:58.485Z,45.60
2022-10-31T09:44:56.848Z,45.20
2022-10-31T09:47:51.974Z,45.50
2022-10-31T09:50:53.822Z,45.50
2022-10-31T09:53:48.571Z,45.40
2022-10-31T09:56:26.818Z,45.50
2022-10-31T09:59:21.168Z,45.50
2022-10-31T10:02:17.738Z,45.40
2022-10-31T10:04:59.481Z,45.60
2022-10-31T10:07:53.234Z,45.50
2022-10-31T10:10:59.623Z,45.50
2022-10-31T10:13:40.798Z,45.50
2022-10-31T10:16:22.140Z,45.50
2022-10-31T10:19:17.210Z,45.50
2022-10-31T10:22:24.726Z,45.50
2022-10-31T10:25:17.407Z,45.50
2022-10-31T10:28:24.761Z,45.50
2022-10-31T10:31:04.664Z,45.40
2022-10-31T10:34:06.899Z,45.40
2022-10-31T10:36:53.191Z,45.30
2022-10-31T10:39:46.657Z,45.20
2022-10-31T10:42:35.430Z,45.20
2022-10-31T10:45:37.345Z,45.20
2022-10-31T10:48:13.502Z,45.10
2022-10-31T10:50:50.802Z,45.10
2022-10-31T10:54:15.289Z,45.20
2022-10-31T10:57:23.505Z,45.00
2022-10-31T10:59:52.170Z,45.00
2022-10-31T11:02:27.373Z,45.10
2022-10-31T11:05:01.231Z,45.10
2022-10-31T11:07:40.843Z,45.00
2022-10-31T11:10:17.448Z,44.90
2022-10-31T11:13:00.767Z,45.00
2022-10-31T11:15:31.039Z,44.90
2022-10-31T11:17:59.114Z,44.90
2022-10-31T11:20:37.103Z,44.80
2022-10-31T11:23:28.028Z,44.70
2022-10-31T11:26:03.895Z,44.70
2022-10-31T11:28:35.722Z,44.60
2022-10-31T11:31:16.353Z,44.70
2022-10-31T11:33:50.579Z,44.60
2022-10-31T11:36:26.530Z,44.60
2022-10-31T11:38:55.182Z,44.50
2022-10-31T11:41:39.480Z,44.60
2022-10-31T11:44:20.472Z,44.70
2022-10-31T11:46:55.118Z,44.50
2022-10-31T11:49:42.231Z,44.50
2022-10-31T11:52:18.432Z,44.40
2022-10-31T11:54:58.343Z,44.40
2022-10-31T11:57:42.828Z,44.30
2022-10-31T12:00:41.928Z,44.40
2022-10-31T12:03:15.510Z,44.20
2022-10-31T12:05:48.277Z,44.30
2022-10-31T12:08:15.870Z,44.40
2022-10-31T12:11:17.862Z,44.30
2022-10-31T12:14:05.605Z,44.20
2022-10-31T12:16:46.462Z,44.10
2022-10-31T12:19:42.970Z,44.20
2022-10-31T12:22:22.421Z,44.10
2022-10-31T12:25:10.520Z,44.30
2022-10-31T12:28:34.062Z,44.20
2022-10-31T12:31:32.667Z,44.10
2022-10-31T12:34:50.014Z,44.10
2022-10-31T12:38:23.209Z,44.10
2022-10-31T12:41:34.412Z,44.10
2022-10-31T12:44:38.904Z,44.10
2022-10-31T12:47:39.093Z,44.10
2022-10-31T12:50:22.451Z,44.10
2022-10-31T12:53:25.389Z,44.10
2022-10-31T12:56:30.714Z,44.10
2022-10-31T12:59:13.979Z,44.10
2022-10-31T13:01:56.846Z,44.10
2022-10-31T13:04:49.009Z,44.10
2022-10-31T13:07:42.320Z,44.00
2022-10-31T13:10:23.860Z,44.10
2022-10-31T13:12:59.485Z,44.00
2022-10-31T13:15:33.657Z,44.10
2022-10-31T13:18:14.030Z,44.00
2022-10-31T13:20:50.352Z,44.00
2022-10-31T13:23:51.227Z,44.10
2022-10-31T13:26:53.240Z,44.00
2022-10-31T13:29:34.343Z,44.00
2022-10-31T13:32:06.503Z,44.10
2022-10-31T13:34:41.238Z,43.60
2022-10-31T13:37:16.912Z,44.10
2022-10-31T13:40:40.084Z,44.10
2022-10-31T13:43:29.837Z,44.00
2022-10-31T13:45:58.158Z,44.10
2022-10-31T13:48:43.522Z,44.20
2022-10-31T13:51:12.371Z,44.20
2022-10-31T13:54:08.209Z,44.10
2022-10-31T13:56:36.759Z,44.10
2022-10-31T13:59:28.209Z,44.20
2022-10-31T14:02:03.356Z,44.30
2022-10-31T14:04:49.512Z,44.30
2022-10-31T14:07:22.248Z,44.90
2022-10-31T14:10:10.095Z,44.30
2022-10-31T14:12:44.353Z,44.30
2022-10-31T14:15:27.304Z,44.40
2022-10-31T14:18:01.485Z,44.40
2022-10-31T14:20:43.697Z,44.40
2022-10-31T14:23:33.723Z,44.40
2022-10-31T14:26:26.669Z,44.30
2022-10-31T14:29:00.349Z,44.40
2022-10-31T14:31:37.462Z,44.40
2022-10-31T14:34:36.597Z,44.50
2022-10-31T14:37:25.012Z,44.50
2022-10-31T14:40:18.617Z,44.50
2022-10-31T14:43:20.995Z,44.50
2022-10-31T14:46:07.546Z,44.60
2022-10-31T14:49:00.427Z,44.60
2022-10-31T14:51:43.515Z,44.60
2022-10-31T14:54:21.069Z,44.60
2022-10-31T14:56:55.405Z,44.60
2022-10-31T14:59:31.705Z,44.60
2022-10-31T15:02:13.769Z,44.60
2022-10-31T15:04:43.614Z,44.60
2022-10-31T15:07:24.906Z,44.60
2022-10-31T15:10:01.606Z,44.70
2022-10-31T15:12:32.679Z,44.70
2022-10-31T15:15:13.540Z,44.70
2022-10-31T15:17:50.199Z,44.60
2022-10-31T15:20:30.552Z,44.60
2022-10-31T15:22:59.736Z,44.60
2022-10-31T15:25:34.460Z,44.60
2022-10-31T15:28:01.746Z,44.60
2022-10-31T15:30:30.328Z,44.60
2022-10-31T15:32:59.224Z,44.50
2022-10-31T15:35:27.617Z,44.50
2022-10-31T15:37:55.616Z,44.50
2022-10-31T15:40:26.704Z,44.40
2022-10-31T15:43:06.703Z,44.40
2022-10-31T15:45:35.589Z,44.40
2022-10-31T15:48:17.862Z,44.50
2022-10-31T15:51:00.102Z,44.40
2022-10-31T15:53:36.920Z,44.50
2022-10-31T15:56:09.458Z,44.50
2022-10-31T15:58:46.435Z,44.40
2022-10-31T16:01:32.114Z,44.40
2022-10-31T16:04:26.109Z,44.40
2022-10-31T16:07:18.753Z,44.40
2022-10-31T16:10:04.836Z,44.40
2022-10-31T16:12:46.104Z,44.50
2022-10-31T16:15:18.553Z,44.40
2022-10-31T16:17:51.983Z,44.50
2022-10-31T16:20:32.916Z,44.50
2022-10-31T16:23:01.960Z,44.50
2022-10-31T16:25:39.064Z,44.40
2022-10-31T16:28:17.909Z,44.40
2022-10-31T16:30:52.999Z,44.50
2022-10-31T16:33:37.818Z,44.40
2022-10-31T16:36:39.430Z,44.50
2022-10-31T16:39:07.525Z,44.40
2022-10-31T16:41:44.008Z,44.40
2022-10-31T16:44:23.590Z,44.50
2022-10-31T16:47:16.207Z,44.60
2022-10-31T16:49:47.127Z,44.50
2022-10-31T16:52:14.014Z,44.50
2022-10-31T16:54:40.918Z,44.50
2022-10-31T16:57:17.007Z,44.50
2022-10-31T16:59:47.352Z,44.50
2022-10-31T17:02:17.558Z,44.50
2022-10-31T17:04:45.010Z,44.50
2022-10-31T17:07:11.906Z,44.50
2022-10-31T17:09:38.849Z,44.50
2022-10-31T17:12:13.857Z,44.60
2022-10-31T17:14:40.867Z,44.50
2022-10-31T17:17:09.091Z,44.50
2022-10-31T17:19:36.022Z,44.50
2022-10-31T17:22:03.294Z,44.50
2022-10-31T17:24:30.322Z,44.50
2022-10-31T17:26:57.318Z,44.50
2022-10-31T17:29:24.350Z,44.50
2022-10-31T17:31:51.274Z,44.30
2022-10-31T17:34:19.333Z,44.40
2022-10-31T17:36:52.416Z,44.50
2022-10-31T17:39:23.158Z,44.50
2022-10-31T17:41:52.904Z,44.60
2022-10-31T17:44:20.106Z,44.60
2022-10-31T17:46:47.059Z,45.00
2022-10-31T17:49:14.235Z,44.70
2022-10-31T17:51:41.104Z,44.70
2022-10-31T17:54:09.144Z,44.80
2022-10-31T17:56:36.032Z,44.80
2022-10-31T17:59:03.580Z,44.80
2022-10-31T18:01:30.632Z,44.90
2022-10-31T18:03:57.892Z,44.90
2022-10-31T18:06:24.906Z,44.90
2022-10-31T18:08:51.852Z,45.00
2022-10-31T18:11:21.935Z,44.90
2022-10-31T18:13:55.382Z,45.00
2022-10-31T18:16:23.121Z,45.00
2022-10-31T18:19:01.930Z,45.00
2022-10-31T18:21:30.055Z,45.00
2022-10-31T18:24:00.234Z,45.00
2022-10-31T18:26:28.541Z,45.00
2022-10-31T18:28:55.484Z,45.00
2022-10-31T18:31:22.389Z,45.00
2022-10-31T18:36:18.836Z,45.00
2022-10-31T18:38:45.862Z,45.00
2022-10-31T18:41:14.393Z,45.00
2022-10-31T18:43:42.413Z,44.90
2022-10-31T18:46:14.119Z,44.90
2022-10-31T18:48:43.627Z,44.90
2022-10-31T18:51:14.621Z,44.80
2022-10-31T18:53:41.833Z,44.90
2022-10-31T18:56:11.160Z,44.80
2022-10-31T18:58:38.553Z,44.60
2022-10-31T19:01:11.839Z,44.80
2022-10-31T19:03:40.201Z,44.80
2022-10-31T19:06:09.678Z,44.70
2022-10-31T19:08:39.072Z,44.80
2022-10-31T19:11:12.171Z,44.80
2022-10-31T19:13:41.522Z,44.70
2022-10-31T19:16:15.265Z,44.70
2022-10-31T19:18:43.819Z,44.70
2022-10-31T19:21:19.656Z,44.70
2022-10-31T19:23:46.795Z,44.70
2022-10-31T19:26:14.715Z,44.60
2022-10-31T19:28:42.634Z,44.70
2022-10-31T19:31:10.391Z,44.70
2022-10-31T19:33:37.838Z,44.70
2022-10-31T19:36:13.393Z,44.70
2022-10-31T19:38:46.786Z,44.70
2022-10-31T19:41:22.653Z,44.70
2022-10-31T19:43:50.661Z,44.70
2022-10-31T19:46:47.805Z,44.70
2022-10-31T19:49:07.248Z,44.70
2022-10-31T19:51:34.330Z,44.70
2022-10-31T19:54:01.205Z,44.60
2022-10-31T19:56:28.145Z,44.60
2022-10-31T19:58:55.078Z,44.60
2022-10-31T20:01:24.184Z,44.60
2022-10-31T20:03:51.949Z,44.60
2022-10-31T20:06:30.762Z,44.60
2022-10-31T20:08:59.564Z,44.70
2022-10-31T20:11:28.695Z,44.60
2022-10-31T20:13:58.188Z,44.60
2022-10-31T20:16:26.573Z,44.70
2022-10-31T20:18:53.837Z,44.60
2022-10-31T20:21:26.394Z,44.60
2022-10-31T20:24:07.621Z,44.60
2022-10-31T20:26:36.203Z,44.60
2022-10-31T20:29:03.903Z,44.60
2022-10-31T20:31:35.898Z,44.60
2022-10-31T20:34:03.373Z,45.30
2022-10-31T20:36:31.015Z,44.60
2022-10-31T20:38:58.892Z,44.60
2022-10-31T20:41:26.595Z,44.60
2022-10-31T20:43:53.932Z,44.60
2022-10-31T20:46:24.699Z,44.60
2022-10-31T20:48:53.602Z,44.60
2022-10-31T20:51:29.096Z,44.80
2022-10-31T20:53:59.052Z,44.60
2022-10-31T20:56:28.081Z,44.60
2022-10-31T20:58:56.654Z,44.60
2022-10-31T21:01:31.081Z,44.60
2022-10-31T21:03:58.847Z,44.70
2022-10-31T21:06:26.360Z,44.60
2022-10-31T21:08:54.296Z,44.60
2022-10-31T21:11:24.617Z,44.70
2022-10-31T21:13:52.281Z,44.70
2022-10-31T21:16:26.543Z,44.70
2022-10-31T21:18:54.422Z,44.70
2022-10-31T21:21:29.078Z,44.70
2022-10-31T21:26:52.086Z,44.70
2022-10-31T21:29:21.435Z,44.70
2022-10-31T21:31:49.057Z,44.70
2022-10-31T21:34:16.359Z,44.80
2022-10-31T21:36:43.242Z,44.40
2022-10-31T21:39:10.818Z,44.70
2022-10-31T21:41:37.896Z,44.70
2022-10-31T21:44:07.755Z,44.70
2022-10-31T21:46:35.074Z,44.60
2022-10-31T21:49:03.718Z,44.60
2022-10-31T21:51:34.116Z,44.70
2022-10-31T21:54:21.918Z,44.60
2022-10-31T21:56:52.166Z,44.70
2022-10-31T21:59:19.628Z,44.70
2022-10-31T22:01:46.811Z,44.60
2022-10-31T22:04:13.808Z,44.70
2022-10-31T22:06:40.748Z,44.70
2022-10-31T22:09:11.164Z,44.70
2022-10-31T22:11:39.267Z,44.70
2022-10-31T22:14:07.105Z,44.70
2022-10-31T22:16:36.656Z,44.70
2022-10-31T22:19:05.863Z,44.70
2022-10-31T22:21:41.146Z,44.70
2022-10-31T22:24:09.397Z,44.70
2022-10-31T22:26:37.849Z,44.70
2022-10-31T22:29:10.140Z,44.70
2022-10-31T22:31:40.864Z,44.70
2022-10-31T22:34:08.317Z,44.70
2022-10-31T22:36:37.713Z,44.60
2022-10-31T22:39:06.147Z,44.60
2022-10-31T22:41:36.015Z,44.70
2022-10-31T22:44:05.059Z,44.60
2022-10-31T22:46:36.767Z,44.70
2022-10-31T22:49:08.999Z,44.70
2022-10-31T22:51:39.466Z,44.70
2022-10-31T22:54:14.262Z,44.60
2022-10-31T22:56:41.771Z,44.70
2022-10-31T22:59:14.758Z,45.30
2022-10-31T23:01:45.510Z,44.70
2022-10-31T23:04:13.278Z,44.70
2022-10-31T23:06:40.449Z,44.70
2022-10-31T23:09:09.152Z,44.80
2022-10-31T23:11:39.752Z,44.70
2022-10-31T23:14:16.399Z,44.70
2022-10-31T23:16:47.683Z,44.70
2022-10-31T23:19:24.783Z,44.70
2022-10-31T23:21:56.423Z,44.70
2022-10-31T23:24:46.518Z,45.30
2022-10-31T23:27:16.361Z,44.70
2022-10-31T23:29:47.471Z,44.70
2022-10-31T23:32:24.350Z,44.70
2022-10-31T23:35:04.190Z,44.70
2022-10-31T23:37:34.330Z,44.70
2022-10-31T23:40:01.830Z,44.70
2022-10-31T23:42:29.209Z,44.70
2022-10-31T23:44:56.481Z,44.70
2022-10-31T23:47:23.806Z,44.70
2022-10-31T23:49:51.239Z,44.80
2022-10-31T23:52:19.311Z,44.80
2022-10-31T23:54:46.477Z,44.70
2022-10-31T23:57:15.458Z,44.70
2022-10-31T23:59:42.772Z,44.70
